Time;durP1;ratioP1;P1;durP2;ratioP2;P2;SDS_P1;SDS_P2;PMS_P1;PMS_P2;Temp;Humidity;BMP_temperature;BMP_pressure;BME280_temperature;BME280_humidity;BME280_pressure;Samples;Min_cycle;Max_cycle;Signal;HPM_P1;HPM_P2
2023/05/13 00:00:01;;;;;;;11.05;7.18;;;;;;;;;;6124619;23;20448;-88
2023/05/13 00:02:45;;;;;;;16.40;7.63;;;;;;;;;;6102721;23;20388;-89
2023/05/13 00:05:30;;;;;;;11.15;6.85;;;;;;;;;;6124573;23;20017;-91
2023/05/13 00:08:15;;;;;;;13.10;7.47;;;;;;;;;;6123843;23;20073;-90
2023/05/13 00:11:00;;;;;;;13.80;7.97;;;;;;;;;;6102828;23;20479;-91
2023/05/13 00:13:45;;;;;;;10.20;7.63;;;;;;;;;;6102603;23;20024;-91
2023/05/13 00:16:29;;;;;;;11.48;7.53;;;;;;;;;;6102737;23;20021;-92
2023/05/13 00:19:14;;;;;;;10.38;7.20;;;;;;;;;;6122716;23;20021;-91
2023/05/13 00:21:58;;;;;;;9.18;6.68;;;;;;;;;;6123364;23;20459;-92
2023/05/13 00:24:43;;;;;;;11.40;8.32;;;;;;;;;;6102928;23;20340;-91
2023/05/13 00:27:27;;;;;;;10.88;8.73;;;;;;;;;;6124099;23;20033;-92
2023/05/13 00:30:12;;;;;;;11.40;7.32;;;;;;;;;;6123825;23;20025;-91
2023/05/13 00:32:57;;;;;;;10.60;7.00;;;;;;;;;;6123337;23;20017;-92
2023/05/13 00:35:42;;;;;;;11.30;8.45;;;;;;;;;;6103076;23;20025;-91
2023/05/13 00:38:26;;;;;;;10.57;7.50;;;;;;;;;;6124939;23;20456;-93
2023/05/13 00:41:11;;;;;;;10.93;7.00;;;;;;;;;;6104427;23;20068;-92
2023/05/13 00:43:56;;;;;;;11.00;7.47;;;;;;;;;;6125474;23;20045;-92
2023/05/13 00:46:41;;;;;;;11.82;7.43;;;;;;;;;;6126514;23;20017;-91
2023/05/13 00:49:26;;;;;;;14.05;7.65;;;;;;;;;;6124720;23;20337;-90
2023/05/13 00:52:11;;;;;;;11.70;7.57;;;;;;;;;;6103887;23;20021;-91
2023/05/13 00:54:56;;;;;;;14.27;8.18;;;;;;;;;;6126501;23;20020;-94
2023/05/13 00:57:40;;;;;;;10.73;7.38;;;;;;;;;;6125322;23;20021;-92
2023/05/13 01:00:25;;;;;;;16.00;8.20;;;;;;;;;;6124731;23;20017;-92
2023/05/13 01:03:09;;;;;;;13.60;8.10;;;;;;;;;;6104607;23;20406;-88
2023/05/13 01:06:02;;;;;;;14.38;8.07;;;;;;;;;;6126468;23;20033;-91
2023/05/13 01:08:53;;;;;;;11.57;8.43;;;;;;;;;;6125366;23;20044;-93
2023/05/13 01:11:40;;;;;;;16.27;8.48;;;;;;;;;;6126374;23;20072;-91
2023/05/13 01:14:25;;;;;;;11.35;8.18;;;;;;;;;;6125749;23;20020;-94
2023/05/13 01:17:27;;;;;;;14.38;8.27;;;10.90;99.90;;;;;;6126591;23;20016;-93
2023/05/13 01:20:12;;;;;;;11.90;8.15;;;;;;;;;;6126017;23;20118;-89
2023/05/13 01:22:56;;;;;;;12.52;8.50;;;;;;;;;;6126468;23;20021;-93
2023/05/13 01:25:41;;;;;;;13.40;8.85;;;;;;;;;;6104713;23;20020;-95
2023/05/13 01:28:25;;;;;;;13.85;9.10;;;;;;;;;;6125612;23;20508;-93
2023/05/13 01:31:10;;;;;;;19.10;8.55;;;;;;;;;;6104415;23;20068;-91
2023/05/13 01:33:55;;;;;;;14.73;9.00;;;;;;;;;;6126013;23;20033;-91
2023/05/13 01:36:40;;;;;;;13.43;9.57;;;;;;;;;;6104046;23;20054;-92
2023/05/13 01:39:25;;;;;;;11.73;8.50;;;;;;;;;;6103648;23;20093;-91
2023/05/13 01:42:09;;;;;;;12.65;9.05;;;;;;;;;;6124660;23;20035;-91
2023/05/13 01:44:54;;;;;;;17.83;9.20;;;;;;;;;;6104150;23;20094;-90
2023/05/13 01:47:38;;;;;;;14.27;9.43;;;;;;;;;;6124662;23;20049;-92
2023/05/13 01:50:23;;;;;;;16.83;8.95;;;;;;;;;;6125232;23;20397;-91
2023/05/13 01:53:07;;;;;;;13.07;9.07;;;;;;;;;;6103921;23;20116;-92
2023/05/13 01:55:52;;;;;;;17.00;10.65;;;;;;;;;;6125547;23;20017;-90
2023/05/13 01:58:36;;;;;;;11.10;8.73;;;;;;;;;;6103181;23;20105;-92
2023/05/13 02:01:21;;;;;;;15.18;8.73;;;;;;;;;;6103269;23;20020;-92
2023/05/13 02:04:05;;;;;;;15.25;9.95;;;;;;;;;;6125658;23;20068;-91
2023/05/13 02:06:50;;;;;;;11.35;9.07;;;;;;;;;;6125622;23;20336;-91
2023/05/13 02:09:34;;;;;;;16.00;9.32;;;;;;;;;;6125060;23;20085;-92
2023/05/13 02:12:19;;;;;;;13.38;9.60;;;;;;;;;;6125205;23;20444;-89
2023/05/13 02:15:03;;;;;;;12.27;9.32;;;;;;;;;;6124383;23;20436;-89
2023/05/13 02:17:48;;;;;;;14.95;10.10;;;;;;;;;;6103770;23;20024;-90
2023/05/13 02:20:33;;;;;;;12.85;9.38;;;;;;;;;;6123713;23;20056;-91
2023/05/13 02:23:17;;;;;;;14.98;10.13;;;;;;;;;;6103491;23;20096;-91
2023/05/13 02:26:02;;;;;;;14.77;10.52;;;;;;;;;;6124324;23;20013;-92
2023/05/13 02:28:47;;;;;;;14.73;11.18;;;;;;;;;;6125385;23;20503;-91
2023/05/13 02:31:31;;;;;;;13.93;10.02;;;;;;;;;;6102996;23;20101;-92
2023/05/13 02:34:16;;;;;;;15.40;11.25;;;;;;;;;;6125541;23;20021;-91
2023/05/13 02:37:00;;;;;;;18.83;11.40;;;;;;;;;;6125345;23;20017;-90
2023/05/13 02:39:45;;;;;;;17.60;11.00;;;;;;;;;;6123605;23;20065;-91
2023/05/13 02:42:30;;;;;;;16.13;10.68;;;;;;;;;;6102947;23;20021;-92
2023/05/13 02:45:14;;;;;;;17.63;11.18;;;;;;;;;;6125603;23;20013;-92
2023/05/13 02:47:59;;;;;;;13.63;11.32;;;;;;;;;;6125494;23;20341;-90
2023/05/13 02:50:44;;;;;;;20.65;11.52;;;;;;;;;;6124684;23;20028;-91
2023/05/13 02:53:28;;;;;;;17.73;11.48;;;;;;;;;;6123426;23;20044;-91
2023/05/13 02:56:15;;;;;;;21.48;13.05;;;;;;;;;;6124104;23;20016;-91
2023/05/13 02:59:00;;;;;;;15.35;10.88;;;;;;;;;;6124906;23;20044;-92
2023/05/13 03:01:44;;;;;;;19.52;12.32;;;;;;;;;;6124841;23;20032;-92
2023/05/13 03:04:29;;;;;;;14.38;10.90;;;;;;;;;;6102778;23;20021;-92
2023/05/13 03:07:14;;;;;;;19.20;13.02;;;;;;;;;;6103413;23;20052;-91
2023/05/13 03:09:58;;;;;;;17.05;12.40;;;;;;;;;;6124813;23;20045;-90
2023/05/13 03:12:43;;;;;;;14.88;11.75;;;;;;;;;;6124221;23;20025;-91
2023/05/13 03:15:27;;;;;;;17.95;13.38;;;;;;;;;;6123627;23;20069;-88
2023/05/13 03:18:12;;;;;;;17.25;12.15;;;;;;;;;;6123863;23;20021;-90
2023/05/13 03:20:56;;;;;;;19.77;11.90;;;;;;;;;;6103165;23;20017;-91
2023/05/13 03:23:42;;;;;;;20.20;12.82;;;;;;;;;;6124530;23;20480;-90
2023/05/13 03:26:27;;;;;;;16.88;12.85;;;;;;;;;;6123941;23;20016;-92
2023/05/13 03:29:11;;;;;;;17.77;13.50;;;;;;;;;;6125064;23;20021;-91
2023/05/13 03:31:55;;;;;;;18.73;13.30;;;;;;;;;;6103391;23;20028;-92
2023/05/13 03:34:40;;;;;;;20.40;13.93;;;;;;;;;;6123534;23;20101;-91
2023/05/13 03:37:25;;;;;;;23.25;13.13;;;;;;;;;;6125402;23;20383;-93
2023/05/13 03:40:10;;;;;;;20.45;12.93;;;;;;;;;;6124217;23;20070;-92
2023/05/13 03:42:55;;;;;;;17.35;13.20;;;;;;;;;;6123431;23;20511;-91
2023/05/13 03:45:39;;;;;;;17.98;13.80;;;;;;;;;;6123460;23;20061;-93
2023/05/13 03:48:24;;;;;;;19.35;13.32;;;;;;;;;;6125183;23;20345;-92
2023/05/13 03:51:09;;;;;;;20.75;15.25;;;;;;;;;;6103674;23;20540;-93
2023/05/13 03:53:53;;;;;;;22.92;14.27;;;;;;;;;;6123393;23;20352;-91
2023/05/13 03:56:38;;;;;;;23.15;14.40;;;;;;;;;;6124910;23;20049;-90
2023/05/13 03:59:23;;;;;;;19.70;15.00;;;;;;;;;;6104756;23;20538;-92
2023/05/13 04:02:07;;;;;;;21.13;15.25;;;;;;;;;;6125537;23;20078;-92
2023/05/13 04:04:52;;;;;;;25.30;15.23;;;;;;;;;;6124663;23;20024;-92
2023/05/13 04:07:36;;;;;;;20.77;14.52;;;;;;;;;;6126334;23;20057;-92
2023/05/13 04:10:21;;;;;;;19.13;14.00;;;;;;;;;;6145527;23;20037;-90
2023/05/13 04:13:06;;;;;;;23.35;15.73;;;;;;;;;;6148007;23;20036;-87
2023/05/13 04:15:53;;;;;;;23.33;16.65;;;;;;;;;;6139550;23;20096;-91
2023/05/13 04:18:37;;;;;;;20.60;15.60;;;;;;;;;;6132738;23;20005;-87
2023/05/13 04:21:22;;;;;;;22.45;16.90;;;;;;;;;;6146779;23;20025;-90
2023/05/13 04:24:06;;;;;;;27.63;17.25;;;;;;;;;;6148553;23;20061;-89
2023/05/13 04:26:51;;;;;;;26.77;14.48;;;;;;;;;;6110541;23;20021;-91
2023/05/13 04:29:36;;;;;;;23.35;14.40;;;;;;;;;;6126183;23;20068;-89
2023/05/13 04:32:20;;;;;;;20.83;13.77;;;;;;;;;;6125715;23;20025;-93
2023/05/13 04:35:08;;;;;;;19.95;14.18;;;;;;;;;;6124795;23;20021;-93
2023/05/13 04:37:53;;;;;;;20.77;14.80;;;;;;;;;;6124663;23;20017;-92
2023/05/13 04:40:37;;;;;;;19.50;14.27;;;;;;;;;;6102984;23;20093;-89
2023/05/13 04:43:22;;;;;;;21.95;14.30;;;;;;;;;;6123857;23;20068;-93
2023/05/13 04:46:07;;;;;;;19.20;13.65;;;;;;;;;;6125828;23;20014;-92
2023/05/13 04:48:51;;;;;;;20.15;13.48;;;;;;;;;;6124533;23;20017;-94
2023/05/13 04:51:36;;;;;;;17.52;12.90;;;;;;;;;;6103115;23;20344;-92
2023/05/13 04:54:20;;;;;;;18.40;13.30;;;;;;;;;;6102977;23;20024;-91
2023/05/13 04:57:05;;;;;;;18.42;13.27;;;;;;;;;;6124321;23;20102;-92
2023/05/13 04:59:50;;;;;;;16.15;13.25;;;;;;;;;;6124623;23;20049;-90
2023/05/13 05:02:35;;;;;;;20.23;13.75;;;;;;;;;;6124318;23;20021;-91
2023/05/13 05:05:20;;;;;;;16.20;13.05;;;;;;;;;;6102509;23;20101;-92
2023/05/13 05:08:05;;;;;;;18.67;13.55;;;;;;;;;;6123586;23;20013;-94
2023/05/13 05:10:49;;;;;;;22.02;12.93;;;;;;;;;;6123781;23;20160;-91
2023/05/13 05:13:33;;;;;;;14.10;12.32;;;;;;;;;;6103593;23;20100;-91
2023/05/13 05:16:18;;;;;;;19.35;12.10;;;;;;;;;;6124477;23;20025;-92
2023/05/13 05:19:03;;;;;;;17.45;12.70;;;;;;;;;;6122497;23;20024;-90
2023/05/13 05:21:47;;;;;;;19.67;12.93;;;;;;;;;;6122596;23;20080;-90
2023/05/13 05:24:32;;;;;;;16.73;11.40;;;11.70;99.90;;;;;;6126184;23;20104;-91
2023/05/13 05:27:18;;;;;;;28.75;12.35;;;;;;;;;;6126252;23;20017;-92
2023/05/13 05:30:03;;;;;;;15.10;10.85;;;;;;;;;;6125935;23;20045;-92
2023/05/13 05:32:47;;;;;;;15.82;11.10;;;;;;;;;;6125966;23;20076;-90
2023/05/13 05:35:35;;;;;;;15.52;10.50;;;;;;;;;;6104439;23;20057;-93
2023/05/13 05:38:20;;;;;;;14.80;10.77;;;;;;;;;;6125027;23;20341;-93
2023/05/13 05:41:04;;;;;;;19.15;11.85;;;;;;;;;;6124469;23;20013;-93
2023/05/13 05:43:49;;;;;;;17.80;9.75;;;;;;;;;;6123463;23;20081;-90
2023/05/13 05:46:34;;;;;;;13.43;9.55;;;;;;;;;;6125857;23;20073;-91
2023/05/13 05:49:19;;;;;;;14.93;9.68;;;;;;;;;;6104781;23;20045;-91
2023/05/13 05:52:04;;;;;;;11.10;9.70;;;;;;;;;;6125173;23;20072;-91
2023/05/13 05:54:48;;;;;;;13.30;9.20;;;;;;;;;;6126040;23;20467;-89
2023/05/13 05:57:33;;;;;;;16.23;8.98;;;;;;;;;;6124200;23;20052;-89
2023/05/13 06:00:17;;;;;;;17.00;8.68;;;;;;;;;;6124658;23;20344;-92
2023/05/13 06:03:02;;;;;;;12.63;8.55;;;;;;;;;;6103030;23;20069;-92
2023/05/13 06:05:47;;;;;;;13.75;8.55;;;;;;;;;;6103834;23;20072;-91
2023/05/13 06:08:31;;;;;;;11.45;8.15;;;;;;;;;;6125804;23;20057;-91
2023/05/13 06:11:16;;;;;;;11.07;7.97;;;;;;;;;;6124941;23;20028;-92
2023/05/13 06:14:00;;;;;;;11.88;7.75;;;;;;;;;;6102893;23;20154;-91
2023/05/13 06:16:45;;;;;;;12.25;7.57;;;;;;;;;;6125668;23;20129;-91
2023/05/13 06:19:30;;;;;;;11.68;8.10;;;;;;;;;;6125250;23;20020;-94
2023/05/13 06:22:15;;;;;;;9.60;7.65;;;;;;;;;;6129042;23;20021;-93
2023/05/13 06:24:59;;;;;;;13.82;7.38;;;;;;;;;;6106684;23;20052;-92
2023/05/13 06:27:44;;;;;;;12.93;6.75;;;;;;;;;;6104318;23;20072;-91
2023/05/13 06:30:28;;;;;;;10.00;6.40;;;;;;;;;;6124466;23;20410;-91
2023/05/13 06:33:13;;;;;;;11.57;6.40;;;;;;;;;;6121800;23;20619;-91
2023/05/13 06:35:58;;;;;;;13.55;7.03;;;;;;;;;;6124786;23;20077;-91
2023/05/13 06:38:43;;;;;;;8.75;6.28;;;;;;;;;;6125264;23;20020;-92
2023/05/13 06:41:27;;;;;;;11.23;6.88;;;;;;;;;;6124274;23;20098;-92
2023/05/13 06:44:12;;;;;;;9.52;6.38;;;;;;;;;;6123855;23;20048;-91
2023/05/13 06:46:56;;;;;;;10.23;5.53;;;;;;;;;;6123423;23;20020;-88
2023/05/13 06:49:41;;;;;;;9.75;5.65;;;;;;;;;;6103424;23;20064;-92
2023/05/13 06:52:26;;;;;;;11.20;6.35;;;;;;;;;;6124104;23;20029;-90
2023/05/13 06:55:10;;;;;;;9.65;6.05;;;;;;;;;;6125830;23;20065;-93
2023/05/13 06:57:55;;;;;;;12.57;6.35;;;;;;;;;;6127191;23;20013;-93
2023/05/13 07:00:40;;;;;;;10.93;5.90;;;;;;;;;;6106188;23;20472;-92
2023/05/13 07:03:25;;;;;;;11.82;6.03;;;;;;;;;;6128253;23;20120;-92
2023/05/13 07:06:10;;;;;;;8.07;5.40;;;;;;;;;;6125189;23;20020;-93
2023/05/13 07:09:02;;;;;;;6.70;5.45;;;;;;;;;;6130938;23;20016;-92
2023/05/13 07:11:47;;;;;;;12.10;5.47;;;;;;;;;;6122934;23;20049;-92
2023/05/13 07:14:31;;;;;;;9.45;5.15;;;;;;;;;;6116133;23;20013;-95
2023/05/13 07:17:16;;;;;;;8.23;4.82;;;;;;;;;;6095709;23;20345;-93
2023/05/13 07:20:01;;;;;;;11.50;4.80;;;;;;;;;;6095180;23;20481;-89
2023/05/13 07:22:46;;;;;;;8.45;4.30;;;;;;;;;;6095610;23;20026;-94
2023/05/13 07:25:30;;;;;;;11.90;4.95;;;;;;;;;;6115391;23;20072;-92
2023/05/13 07:28:15;;;;;;;6.47;3.97;;;;;;;;;;6114797;23;20020;-90
2023/05/13 07:30:59;;;;;;;9.25;4.15;;;;;;;;;;6094407;23;20053;-91
2023/05/13 07:33:44;;;;;;;10.63;4.30;;;;;;;;;;6095325;23;20060;-91
2023/05/13 07:36:29;;;;;;;7.53;4.05;;;;;;;;;;6115283;23;20530;-91
2023/05/13 07:39:13;;;;;;;6.03;3.83;;;;;;;;;;6094961;23;20018;-92
2023/05/13 07:41:58;;;;;;;8.38;4.72;;;;;;;;;;6115186;23;20174;-95
2023/05/13 07:44:42;;;;;;;8.32;3.80;;;;;;;;;;6114803;23;20033;-92
2023/05/13 07:47:27;;;;;;;8.80;3.85;;;;;;;;;;6095397;23;20500;-92
2023/05/13 07:50:12;;;;;;;9.23;3.80;;;;;;;;;;6093966;23;20112;-94
2023/05/13 07:52:56;;;;;;;7.30;3.55;;;;;;;;;;6095632;23;20353;-92
2023/05/13 07:55:41;;;;;;;7.20;3.50;;;;;;;;;;6094195;23;20017;-90
2023/05/13 07:58:25;;;;;;;6.38;3.58;;;;;;;;;;6093554;23;20082;-92
2023/05/13 08:01:10;;;;;;;6.97;3.58;;;;;;;;;;6098350;23;20056;-95
2023/05/13 08:03:55;;;;;;;9.18;3.55;;;;;;;;;;6098006;23;20026;-96
2023/05/13 08:06:40;;;;;;;6.82;3.70;;;;;;;;;;6095558;23;20333;-90
2023/05/13 08:09:24;;;;;;;8.10;3.72;;;;;;;;;;6114612;23;20429;-91
2023/05/13 08:12:09;;;;;;;8.65;4.28;;;;;;;;;;6122857;23;20024;-91
2023/05/13 08:14:53;;;;;;;8.40;3.90;;;;;;;;;;6124737;23;20556;-91
2023/05/13 08:17:38;;;;;;;6.10;3.40;;;;;;;;;;6112515;23;20042;-94
2023/05/13 08:20:28;;;;;;;6.63;3.47;;;;;;;;;;6106130;23;20021;-94
2023/05/13 08:23:16;;;;;;;6.15;3.05;;;;;;;;;;6132852;23;20525;-93
2023/05/13 08:26:01;;;;;;;7.28;4.00;;;;;;;;;;6106594;23;20016;-93
2023/05/13 08:28:49;;;;;;;7.10;3.72;;;;;;;;;;6126759;23;20029;-93
2023/05/13 08:31:34;;;;;;;6.22;3.30;;;;;;;;;;6103414;23;20020;-91
2023/05/13 08:34:19;;;;;;;6.30;3.13;;;;;;;;;;6124491;23;20072;-95
2023/05/13 08:37:04;;;;;;;6.30;3.15;;;;;;;;;;6105073;23;20021;-95
2023/05/13 08:39:51;;;;;;;7.32;3.45;;;;;;;;;;6106563;23;20037;-94
2023/05/13 08:42:40;;;;;;;6.28;4.20;;;;;;;;;;6103616;23;20105;-89
2023/05/13 08:45:26;;;;;;;9.63;3.53;;;;;;;;;;6125371;23;20060;-95
2023/05/13 08:48:11;;;;;;;5.78;3.55;;;;;;;;;;6124138;23;20107;-92
2023/05/13 08:50:57;;;;;;;8.82;3.63;;;;;;;;;;6102471;23;20025;-92
2023/05/13 08:53:42;;;;;;;6.97;3.50;;;;;;;;;;6124470;23;20025;-91
2023/05/13 08:56:28;;;;;;;8.52;3.85;;;;;;;;;;6101824;23;20353;-94
2023/05/13 08:59:13;;;;;;;8.48;3.50;;;;;;;;;;6124961;23;20017;-90
2023/05/13 09:02:01;;;;;;;9.90;3.45;;;;;;;;;;6104149;23;20092;-93
2023/05/13 09:04:48;;;;;;;7.50;3.20;;;;;;;;;;6125042;23;20508;-92
2023/05/13 09:07:36;;;;;;;8.45;3.92;;;;;;;;;;6124153;23;20311;-95
2023/05/13 09:10:21;;;;;;;7.47;3.22;;;;;;;;;;6124256;23;20046;-87
2023/05/13 09:13:06;;;;;;;5.57;3.25;;;;;;;;;;6125234;23;20025;-93
2023/05/13 09:16:01;;;;;;;7.35;3.40;;;;;;;;;;6135813;23;20024;31
2023/05/13 09:18:49;;;;;;;7.75;3.72;;;;;;;;;;6107559;23;20079;-93
2023/05/13 09:21:30;;;;;;;10.40;3.53;;;;;;;;;;6164080;23;20021;-95
2023/05/13 09:24:20;;;;;;;6.15;3.22;;;;;;;;;;6168984;23;20032;-88
2023/05/13 09:27:12;;;;;;;8.55;3.08;;;;;;;;;;6176444;23;20032;-94
2023/05/13 09:30:01;;;;;;;7.63;2.83;;;;;;;;;;6123422;23;20101;-93
2023/05/13 09:33:10;;;;;;;6.03;2.80;;;;;;;;;;6118805;23;20029;-94
2023/05/13 09:35:57;;;;;;;6.18;3.30;;;;;;;;;;6130854;22;20056;-95
2023/05/13 09:38:48;;;;;;;5.70;2.70;;;;;;;;;;6178530;23;20049;-94
2023/05/13 09:41:41;;;;;;;4.35;2.47;;;;;;;;;;6156588;23;20024;-95
2023/05/13 09:44:35;;;;;;;5.65;2.33;;;;;;;;;;6158288;23;20090;-91
2023/05/13 09:47:22;;;;;;;;;;;;;;;;;;6154736;23;20021;-90
2023/05/13 09:50:14;;;;;;;11.32;2.92;;;;;;;;;;6160256;23;19943;-91
2023/05/13 09:53:14;;;;;;;7.88;2.55;;;;;;;;;;6143190;23;21118;-93
2023/05/13 09:56:17;;;;;;;7.10;2.67;;;;;;;;;;6141280;23;20008;-95
2023/05/13 09:59:06;;;;;;;8.18;3.15;;;;;;;;;;6155176;23;20077;-95
2023/05/13 10:01:59;;;;;;;10.55;4.25;;;;;;;;;;6145509;23;20156;-96
2023/05/13 10:04:47;;;;;;;;;;;24.20;72.00;;;;;;6139442;23;20767;-96
2023/05/13 10:10:37;;;;;;;8.75;3.22;;;;;;;;;;6194198;23;20021;-92
2023/05/13 10:16:27;;;;;;;8.25;2.92;;;;;;;;;;6194529;23;20025;-91
2023/05/13 10:19:42;;;;;;;;;;;;;;;;;;;;;
2023/05/13 10:25:00;;;;;;;6.95;2.67;;;;;;;;;;6189926;23;20443;-94
2023/05/13 10:27:47;;;;;;;;;;;24.50;67.10;;;;;;6187217;22;20237;-94
2023/05/13 10:30:34;;;;;;;6.93;2.80;;;;;;;;;;6204774;23;19916;-93
2023/05/13 10:33:24;;;;;;;6.50;2.58;;;;;;;;;;6177196;23;20028;-95
2023/05/13 10:36:27;;;;;;;6.75;3.10;;;;;;;;;;6174731;22;20024;-94
2023/05/13 10:39:39;;;;;;;5.63;3.22;;;;;;;;;;6183902;23;20024;-96
2023/05/13 10:45:44;;;;;;;5.68;3.40;;;;;;;;;;6204232;23;20024;-93
2023/05/13 10:48:59;;;;;;;6.93;3.58;;;;;;;;;;6183751;23;20016;-93
2023/05/13 10:51:55;;;;;;;6.93;3.28;;;;;;;;;;6186912;23;20032;-94
2023/05/13 10:55:00;;;;;;;7.18;2.50;;;;;;;;;;6185444;23;20031;-95
2023/05/13 10:58:03;;;;;;;9.98;2.97;;;;;;;;;;6213745;23;20039;-92
2023/05/13 11:00:50;;;;;;;;;;;25.40;64.20;;;;;;6218404;23;20582;-93
2023/05/13 11:03:38;;;;;;;8.00;2.88;;;;;;;;;;6239213;23;19903;-90
2023/05/13 11:06:25;;;;;;;5.82;2.80;;;;;;;;;;6173979;23;20044;-92
2023/05/13 11:09:29;;;;;;;8.60;2.83;;;;;;;;;;6188378;23;20005;-93
2023/05/13 11:12:14;;;;;;;5.40;3.13;;;;;;;;;;6190726;23;20008;-92
2023/05/13 11:15:10;;;;;;;6.97;3.10;;;;;;;;;;6185108;23;20019;-93
2023/05/13 11:17:58;;;;;;;6.07;3.10;;;;;;;;;;6183860;23;20036;-93
2023/05/13 11:21:07;;;;;;;6.78;2.72;;;;;;;;;;6186200;23;20024;-95
2023/05/13 11:23:52;;;;;;;5.93;2.65;;;;;;;;;;6181106;23;20419;-92
2023/05/13 11:29:11;;;;;;;11.13;3.10;;;;;;;;;;6138418;23;20033;-94
2023/05/13 11:32:03;;;;;;;5.10;2.70;;;;;;;;;;6160574;23;20061;-95
2023/05/13 11:34:56;;;;;;;9.37;2.90;;;;;;;;;;6126732;23;20045;-92
2023/05/13 11:37:44;;;;;;;5.72;2.58;;;;;;;;;;6146186;23;20021;-93
2023/05/13 11:40:37;;;;;;;10.27;3.13;;;;;;;;;;6146918;23;20335;-93
2023/05/13 11:43:32;;;;;;;6.10;2.33;;;;;;;;;;6170630;23;20136;-94
2023/05/13 11:46:25;;;;;;;5.10;2.65;;;;;;;;;;6146401;23;20044;-93
2023/05/13 11:49:12;;;;;;;7.33;2.80;;;;;;;;;;6163800;23;20191;-95
2023/05/13 11:51:58;;;;;;;5.50;2.63;;;;;;;;;;6164419;23;20072;-95
2023/05/13 11:54:48;;;;;;;8.20;2.80;;;;;;;;;;6143743;23;20032;-95
2023/05/13 11:57:43;;;;;;;;;;;;;;;;;;;;;
2023/05/13 12:00:35;;;;;;;7.45;2.97;;;;;;;;;;6166092;23;20096;-93
2023/05/13 12:03:20;;;;;;;3.85;2.30;;;;;;;;;;6141823;23;20335;-91
2023/05/13 12:06:05;;;;;;;6.43;3.08;;;;;;;;;;6158428;23;20384;-92
2023/05/13 12:08:53;;;;;;;7.78;2.50;;;;;;;;;;6132070;23;20463;-89
2023/05/13 12:11:39;;;;;;;7.85;2.83;;;;;;;;;;6152936;23;20017;-88
2023/05/13 12:14:26;;;;;;;4.13;2.45;;;;;;;;;;6155342;23;20016;-87
2023/05/13 12:17:11;;;;;;;4.82;2.25;;;;;;;;;;6135400;23;20490;-93
2023/05/13 12:20:09;;;;;;;5.75;2.22;;;;;;;;;;6155452;23;20028;-93
2023/05/13 12:22:58;;;;;;;3.97;2.10;;;;;;;;;;6133871;23;20072;-94
2023/05/13 12:25:54;;;;;;;9.32;2.70;;;;;;;;;;6159059;23;20016;-96
2023/05/13 12:28:39;;;;;;;6.57;2.50;;;;;;;;;;6141233;23;20016;-93
2023/05/13 12:31:26;;;;;;;5.28;2.45;;;;;;;;;;6162464;23;20020;-96
2023/05/13 12:34:11;;;;;;;7.50;2.60;;;;;;;;;;6139386;23;20028;-95
2023/05/13 12:37:10;;;;;;;6.57;2.40;;;25.10;54.60;;;;;;6170508;23;20108;-93
2023/05/13 12:40:08;;;;;;;6.15;2.60;;;;;;;;;;6166888;23;20450;-96
2023/05/13 12:42:59;;;;;;;7.97;3.28;;;24.10;58.40;;;;;;6168812;23;20048;-96
2023/05/13 12:45:45;;;;;;;5.63;2.35;;;;;;;;;;6160424;23;20017;-95
2023/05/13 12:48:32;;;;;;;4.38;2.17;;;24.40;55.20;;;;;;6158804;23;20040;-93
2023/05/13 12:51:16;;;;;;;6.13;2.80;;;;;;;;;;6165714;23;20091;-94
2023/05/13 12:54:07;;;;;;;7.15;2.60;;;;;;;;;;6139734;23;20072;-95
2023/05/13 12:56:51;;;;;;;8.73;2.65;;;;;;;;;;6173843;23;20036;-92
2023/05/13 12:59:36;;;;;;;10.43;3.55;;;;;;;;;;6110577;23;20064;-92
2023/05/13 13:02:21;;;;;;;7.80;3.53;;;;;;;;;;6138150;23;20065;-94
2023/05/13 13:05:09;;;;;;;7.43;3.00;;;;;;;;;;6107789;23;20064;-94
2023/05/13 13:07:56;;;;;;;8.40;3.42;;;;;;;;;;6128854;23;20046;-94
2023/05/13 13:13:23;;;;;;;6.22;2.90;;;;;;;;;;6193843;23;20031;-95
2023/05/13 13:16:10;;;;;;;4.07;2.55;;;;;;;;;;6194782;23;20016;-95
2023/05/13 13:19:00;;;;;;;9.30;3.08;;;;;;;;;;6195015;23;20105;-94
2023/05/13 13:21:47;;;;;;;8.95;2.53;;;;;;;;;;6176269;23;20096;-91
2023/05/13 13:24:32;;;;;;;6.25;2.70;;;;;;;;;;6189036;23;20044;-96
2023/05/13 13:27:17;;;;;;;6.68;3.13;;;;;;;;;;6168671;23;20015;-95
2023/05/13 13:30:01;;;;;;;7.95;3.10;;;;;;;;;;6190566;23;20016;-93
2023/05/13 13:32:46;;;;;;;8.45;3.03;;;;;;;;;;6190495;23;20065;-93
2023/05/13 13:35:45;;;;;;;8.90;3.00;;;;;;;;;;6192575;23;20015;-94
2023/05/13 13:38:30;;;;;;;5.43;3.28;;;;;;;;;;6201813;23;20040;-90
2023/05/13 13:41:15;;;;;;;7.40;2.90;;;;;;;;;;6182457;23;20047;-90
2023/05/13 13:44:07;;;;;;;7.50;2.78;;;;;;;;;;6184254;23;20024;-94
2023/05/13 13:47:00;;;;;;;7.50;2.83;;;;;;;;;;6169264;23;20016;-94
2023/05/13 13:49:45;;;;;;;10.87;2.90;;;;;;;;;;6166450;23;20236;-91
2023/05/13 13:52:30;;;;;;;5.32;2.47;;;;;;;;;;6165219;23;20475;-92
2023/05/13 13:55:17;;;;;;;9.73;2.40;;;;;;;;;;6167089;23;20016;-95
2023/05/13 13:58:02;;;;;;;7.95;3.00;;;;;;;;;;6166081;23;20089;-94
2023/05/13 14:00:47;;;;;;;7.57;2.50;;;;;;;;;;6186507;23;20016;-95
2023/05/13 14:03:31;;;;;;;4.10;2.70;;;;;;;;;;6194928;23;20475;-95
2023/05/13 14:06:22;;;;;;;5.40;2.88;;;;;;;;;;6173786;23;20080;-94
2023/05/13 14:09:17;;;;;;;7.40;3.13;;;;;;;;;;6170408;23;20032;-96
2023/05/13 14:12:08;;;;;;;7.15;2.95;;;;;;;;;;6174908;23;20032;-95
2023/05/13 14:14:56;;;;;;;6.43;2.92;;;;;;;;;;6192078;23;20012;-94
2023/05/13 14:17:41;;;;;;;6.07;3.17;;;;;;;;;;6193690;23;20047;-93
2023/05/13 14:20:27;;;;;;;8.02;2.88;;;;;;;;;;6170370;23;20067;-94
2023/05/13 14:23:14;;;;;;;4.75;2.55;;;;;;;;;;6194582;23;20039;-96
2023/05/13 14:26:03;;;;;;;4.85;2.88;;;;;;;;;;6173967;23;20036;-94
2023/05/13 14:28:51;;;;;;;7.10;3.67;;;;;;;;;;6170410;23;20340;-94
2023/05/13 14:31:41;;;;;;;7.38;2.35;;;;;;;;;;6191673;23;20044;-95
2023/05/13 14:34:26;;;;;;;5.80;2.63;;;;;;;;;;6169504;23;20111;-95
2023/05/13 14:37:16;;;;;;;7.40;3.65;;;;;;;;;;6165346;23;20013;-95
2023/05/13 14:40:03;;;;;;;5.38;2.40;;;;;;;;;;6168786;23;20075;-93
2023/05/13 14:42:48;;;;;;;4.63;2.67;;;;;;;;;;6164782;23;20348;-94
2023/05/13 14:45:34;;;;;;;7.03;2.95;;;;;;;;;;6168978;23;20096;-95
2023/05/13 14:48:22;;;;;;;9.27;3.13;;;;;;;;;;6171819;23;20040;-89
2023/05/13 14:51:09;;;;;;;7.47;2.90;;;;;;;;;;6169752;23;20015;-94
2023/05/13 14:53:54;;;;;;;8.38;2.67;;;;;;;;;;6170657;23;20120;-94
2023/05/13 14:56:40;;;;;;;9.98;3.10;;;;;;;;;;6167249;23;20387;-93
2023/05/13 14:59:24;;;;;;;8.98;2.80;;;;;;;;;;6168649;23;20059;-93
2023/05/13 15:02:12;;;;;;;7.78;2.28;;;;;;;;;;6169312;23;20071;-95
2023/05/13 15:04:58;;;;;;;6.22;3.22;;;;;;;;;;6179668;23;20045;-92
2023/05/13 15:07:45;;;;;;;5.82;3.25;;;;;;;;;;6149572;23;20012;-93
2023/05/13 15:10:35;;;;;;;8.52;2.88;;;;;;;;;;6140339;23;20036;-91
2023/05/13 15:13:20;;;;;;;7.85;3.22;;;;;;;;;;6134151;23;20071;-90
2023/05/13 15:16:05;;;;;;;4.72;2.78;;;;;;;;;;6155534;23;20021;-94
2023/05/13 15:18:50;;;;;;;3.88;2.47;;;;;;;;;;6157174;23;20036;-93
2023/05/13 15:21:40;;;;;;;6.78;2.80;;;;;;;;;;6161936;23;20028;-95
2023/05/13 15:24:27;;;;;;;7.13;2.72;;;;;;;;;;6136899;23;20033;-95
2023/05/13 15:27:15;;;;;;;6.43;2.65;;;;;;;;;;6137782;23;20483;-96
2023/05/13 15:30:02;;;;;;;4.28;2.78;;;;;;;;;;6134740;23;20017;-93
2023/05/13 15:32:57;;;;;;;6.78;2.72;;;;;;;;;;6164858;23;20478;-93
2023/05/13 15:36:04;;;;;;;9.73;2.72;;;;;;;;;;6181532;23;20032;-94
2023/05/13 15:38:52;;;;;;;8.68;3.05;;;;;;;;;;6157303;23;20085;-94
2023/05/13 15:41:42;;;;;;;5.38;2.47;;;;;;;;;;6178193;23;20097;-92
2023/05/13 15:47:05;;;;;;;9.25;2.50;;;;;;;;;;6171997;23;20025;-90
2023/05/13 15:50:00;;;;;;;6.40;2.05;;;;;;;;;;6168403;23;20024;-95
2023/05/13 15:52:46;;;;;;;5.43;2.38;;;;;;;;;;6157362;23;20024;-91
2023/05/13 15:55:39;;;;;;;6.30;2.90;;;;;;;;;;6170561;23;20347;-94
2023/05/13 15:58:33;;;;;;;7.57;2.28;;;;;;;;;;6172487;23;20098;-93
2023/05/13 16:01:46;;;;;;;;;;;;;;;;;;;;;
2023/05/13 16:04:33;;;;;;;4.68;2.40;;;;;;;;;;6165326;23;20015;-95
2023/05/13 16:07:32;;;;;;;5.47;2.50;;;;;;;;;;6138846;23;20016;-94
2023/05/13 16:10:16;;;;;;;5.78;2.90;;;;;;;;;;6141199;23;20076;-94
2023/05/13 16:13:06;;;;;;;4.07;2.67;;;;;;;;;;6165356;23;20472;-96
2023/05/13 16:15:52;;;;;;;5.35;2.75;;;;;;;;;;6168410;23;20697;-95
2023/05/13 16:18:37;;;;;;;7.15;3.40;;;;;;;;;;6137935;23;20419;-93
2023/05/13 16:21:43;;;;;;;;;;;;;;;;;;;;;
2023/05/13 16:24:31;;;;;;;12.10;4.10;;;;;;;;;;6162058;23;20024;-93
2023/05/13 16:27:15;;;;;;;8.38;4.07;;;;;;;;;;6155326;23;20056;-93
2023/05/13 16:30:01;;;;;;;5.30;3.78;;;;;;;;;;6134872;23;20056;-93
2023/05/13 16:32:52;;;;;;;7.50;4.00;;;;;;;;;;6136485;23;20041;-94
2023/05/13 16:35:39;;;;;;;8.35;3.53;;;;;;;;;;6161599;23;20036;-94
2023/05/13 16:38:34;;;;;;;4.90;2.90;;;;;;;;;;6132775;23;20503;-90
2023/05/13 16:41:22;;;;;;;4.38;3.20;;;;;;;;;;6134468;23;20012;-94
2023/05/13 16:44:15;;;;;;;9.98;4.28;;;;;;;;;;6158201;23;20020;-94
2023/05/13 16:46:59;;;;;;;13.65;3.65;;;;;;;;;;6155264;23;20339;-93
2023/05/13 16:49:44;;;;;;;9.70;3.38;;;;;;;;;;6132376;23;20016;-87
2023/05/13 16:52:36;;;;;;;9.30;3.65;;;;;;;;;;6153012;23;20024;-95